Allegre, Kentucky
Current Conditions -  °F | °C
As of 12:58 PM on Friday 24 Oct 2014 (Local Time) from KHOP Reporting Station
Broken Clouds Broken Clouds  
Wind Chill: 65°   Ceiling: 4800
Heat Index: 65°   Visibility: 10mi
Dew Point: 42°   Wind: 2mph
Humidity: 43%   Direction: NA
Pressure: 30.11"   Gusts: NA
Location:  36.93°N, 87.22°W
Report Text: KHOP 241758Z AUTO VRB02KT 10SM BKN048 18/06 A3011 RMK AO2 SLP197 T01820055 10185 20056 58011
Loading
Personal Weather Stations






























Interactive Weather Map
Tropical Storm Tracking
New forecast layout! Learn more

10-Day Weather Forecast

Advertisements
Track Severe Weather on mobile